Time,TemperatureF,DewpointF,PressureIn,WindDirection,WindDirectionDegrees,WindSpeedMPH,WindSpeedGustMPH,Humidity,HourlyPrecipIn,Conditions,Clouds,dailyrainin,SoftwareType,DateUTC
2013-01-12 00:04:00,53.5,50.3,29.55,SSE,160,4.0,11.0,89,0.00,,,0.00,Wunderground v.1.15,2013-01-12 06:04:00,
2013-01-12 00:10:00,53.6,50.4,29.54,SE,125,5.0,6.0,89,0.00,,,0.00,Wunderground v.1.15,2013-01-12 06:10:00,
2013-01-12 00:15:00,53.7,50.8,29.54,SSE,153,8.0,8.0,90,0.00,,,0.00,Wunderground v.1.15,2013-01-12 06:15:00,
2013-01-12 00:20:00,53.9,51.0,29.55,WSW,238,10.0,10.0,90,0.00,,,0.00,Wunderground v.1.15,2013-01-12 06:20:00,
2013-01-12 00:25:00,54.1,51.2,29.55,SE,134,1.0,10.0,90,0.00,,,0.00,Wunderground v.1.15,2013-01-12 06:25:00,
2013-01-12 00:31:00,54.1,51.5,29.55,ESE,103,2.0,7.0,91,0.00,,,0.00,Wunderground v.1.15,2013-01-12 06:31:00,
2013-01-12 00:36:00,54.3,51.7,29.56,SSW,197,2.0,7.0,91,0.00,,,0.00,Wunderground v.1.15,2013-01-12 06:36:00,
2013-01-12 00:42:00,54.3,51.7,29.55,ESE,104,4.0,4.0,91,0.00,,,0.00,Wunderground v.1.15,2013-01-12 06:42:00,
2013-01-12 00:47:00,54.4,52.1,29.56,SSW,212,3.0,7.0,92,0.00,,,0.00,Wunderground v.1.15,2013-01-12 06:47:00,
2013-01-12 00:52:00,54.5,52.2,29.56,SSE,148,5.0,6.0,92,0.00,,,0.00,Wunderground v.1.15,2013-01-12 06:52:00,
2013-01-12 00:58:00,54.6,52.3,29.56,SE,125,2.0,10.0,92,0.00,,,0.00,Wunderground v.1.15,2013-01-12 06:58:00,
2013-01-12 01:03:00,54.6,52.3,29.56,SE,145,2.0,5.0,92,0.00,,,0.00,Wunderground v.1.15,2013-01-12 07:03:00,
2013-01-12 01:08:00,54.5,52.5,29.56,SSE,162,1.0,5.0,93,0.00,,,0.00,Wunderground v.1.15,2013-01-12 07:08:00,
2013-01-12 01:14:00,54.5,52.5,29.56,SSW,212,5.0,5.0,93,0.00,,,0.00,Wunderground v.1.15,2013-01-12 07:14:00,
2013-01-12 01:19:00,54.4,52.4,29.56,South,187,2.0,5.0,93,0.00,,,0.00,Wunderground v.1.15,2013-01-12 07:19:00,
2013-01-12 01:24:00,54.4,52.4,29.56,SW,228,2.0,4.0,93,0.00,,,0.00,Wunderground v.1.15,2013-01-12 07:24:00,
2013-01-12 01:30:00,54.3,52.3,29.56,ESE,117,3.0,3.0,93,0.00,,,0.00,Wunderground v.1.15,2013-01-12 07:30:00,
2013-01-12 01:35:00,54.3,52.6,29.56,South,173,2.0,6.0,94,0.00,,,0.00,Wunderground v.1.15,2013-01-12 07:35:00,
2013-01-12 01:40:00,54.2,52.5,29.56,SSE,168,2.0,3.0,94,0.00,,,0.00,Wunderground v.1.15,2013-01-12 07:40:00,
2013-01-12 01:46:00,54.3,52.6,29.57,SSE,156,3.0,5.0,94,0.00,,,0.00,Wunderground v.1.15,2013-01-12 07:46:00,
2013-01-12 01:51:00,54.2,52.5,29.57,ESE,114,3.0,3.0,94,0.00,,,0.00,Wunderground v.1.15,2013-01-12 07:51:00,
2013-01-12 01:56:00,54.2,52.5,29.57,SE,139,3.0,4.0,94,0.00,,,0.00,Wunderground v.1.15,2013-01-12 07:56:00,
2013-01-12 02:01:00,54.4,53.0,29.57,SSE,158,3.0,6.0,95,0.00,,,0.00,Wunderground v.1.15,2013-01-12 08:01:00,
2013-01-12 02:06:00,54.5,53.1,29.57,SW,228,2.0,7.0,95,0.00,,,0.00,Wunderground v.1.15,2013-01-12 08:06:00,
2013-01-12 02:11:00,54.6,53.2,29.57,ESE,122,2.0,5.0,95,0.00,,,0.00,Wunderground v.1.15,2013-01-12 08:11:00,
2013-01-12 02:16:00,54.6,53.2,29.57,SSW,201,7.0,7.0,95,0.00,,,0.00,Wunderground v.1.15,2013-01-12 08:16:00,
2013-01-12 02:21:00,54.7,53.3,29.57,SE,135,3.0,6.0,95,0.00,,,0.00,Wunderground v.1.15,2013-01-12 08:21:00,
2013-01-12 02:26:00,54.6,53.2,29.57,SSW,206,4.0,6.0,95,0.00,,,0.00,Wunderground v.1.15,2013-01-12 08:26:00,
2013-01-12 02:31:00,54.7,53.3,29.57,SSW,208,3.0,4.0,95,0.00,,,0.00,Wunderground v.1.15,2013-01-12 08:31:00,
2013-01-12 02:36:00,54.7,53.3,29.57,WSW,250,5.0,8.0,95,0.00,,,0.00,Wunderground v.1.15,2013-01-12 08:36:00,
2013-01-12 02:41:00,54.8,53.4,29.57,SW,219,4.0,4.0,95,0.00,,,0.00,Wunderground v.1.15,2013-01-12 08:41:00,
2013-01-12 02:46:00,55.1,54.0,29.57,SSE,153,3.0,8.0,96,0.00,,,0.00,Wunderground v.1.15,2013-01-12 08:46:00,
2013-01-12 02:51:00,55.2,53.8,29.57,SSE,149,0.0,4.0,95,0.00,,,0.00,Wunderground v.1.15,2013-01-12 08:51:00,
2013-01-12 02:56:00,55.2,53.8,29.57,SW,226,7.0,7.0,95,0.00,,,0.00,Wunderground v.1.15,2013-01-12 08:56:00,
2013-01-12 03:01:00,55.2,53.8,29.57,SSE,155,2.0,4.0,95,0.00,,,0.00,Wunderground v.1.15,2013-01-12 09:01:00,
2013-01-12 03:06:00,55.2,54.1,29.57,South,174,3.0,6.0,96,0.00,,,0.00,Wunderground v.1.15,2013-01-12 09:06:00,
2013-01-12 03:11:00,55.2,54.1,29.57,SE,125,2.0,5.0,96,0.00,,,0.00,Wunderground v.1.15,2013-01-12 09:11:00,
2013-01-12 03:16:00,55.3,54.2,29.57,SSW,203,2.0,7.0,96,0.00,,,0.00,Wunderground v.1.15,2013-01-12 09:16:00,
2013-01-12 03:21:00,55.5,54.4,29.56,WSW,237,5.0,6.0,96,0.00,,,0.00,Wunderground v.1.15,2013-01-12 09:21:00,
2013-01-12 03:26:00,55.7,54.6,29.56,SE,136,4.0,8.0,96,0.00,,,0.00,Wunderground v.1.15,2013-01-12 09:26:00,
2013-01-12 03:31:00,55.9,54.8,29.57,SW,224,5.0,7.0,96,0.00,,,0.00,Wunderground v.1.15,2013-01-12 09:31:00,
2013-01-12 03:36:00,56.1,55.0,29.57,South,188,3.0,8.0,96,0.00,,,0.00,Wunderground v.1.15,2013-01-12 09:36:00,
2013-01-12 03:41:00,56.4,55.3,29.57,SSW,213,4.0,5.0,96,0.00,,,0.00,Wunderground v.1.15,2013-01-12 09:41:00,
2013-01-12 03:46:00,56.6,55.2,29.56,SW,226,2.0,10.0,95,0.00,,,0.00,Wunderground v.1.15,2013-01-12 09:46:00,
2013-01-12 03:51:00,56.9,55.5,29.56,SW,219,3.0,11.0,95,0.00,,,0.00,Wunderground v.1.15,2013-01-12 09:51:00,
2013-01-12 03:56:00,57.3,55.9,29.56,SSW,208,6.0,12.0,95,0.00,,,0.00,Wunderground v.1.15,2013-01-12 09:56:00,
2013-01-12 04:01:00,57.4,56.0,29.56,SE,146,5.0,9.0,95,0.00,,,0.00,Wunderground v.1.15,2013-01-12 10:01:00,
2013-01-12 04:06:00,57.6,55.9,29.55,South,169,2.0,10.0,94,0.00,,,0.00,Wunderground v.1.15,2013-01-12 10:06:00,
2013-01-12 04:12:00,57.6,55.9,29.55,SSW,208,4.0,4.0,94,0.00,,,0.00,Wunderground v.1.15,2013-01-12 10:12:00,
2013-01-12 04:17:00,57.6,55.9,29.55,SSW,198,1.0,9.0,94,0.00,,,0.00,Wunderground v.1.15,2013-01-12 10:17:00,
2013-01-12 04:22:00,57.7,56.0,29.55,ESE,115,3.0,5.0,94,0.00,,,0.00,Wunderground v.1.15,2013-01-12 10:22:00,
2013-01-12 04:27:00,57.8,56.1,29.56,SSE,167,2.0,7.0,94,0.00,,,0.00,Wunderground v.1.15,2013-01-12 10:27:00,
2013-01-12 04:32:00,57.9,56.2,29.56,SSW,204,5.0,8.0,94,0.00,,,0.00,Wunderground v.1.15,2013-01-12 10:32:00,
2013-01-12 04:37:00,58.0,56.3,29.56,SW,222,7.0,8.0,94,0.00,,,0.00,Wunderground v.1.15,2013-01-12 10:37:00,
2013-01-12 04:42:00,58.2,56.5,29.56,SW,225,2.0,8.0,94,0.00,,,0.00,Wunderground v.1.15,2013-01-12 10:42:00,
2013-01-12 04:47:00,58.3,56.6,29.56,SW,229,4.0,8.0,94,0.00,,,0.00,Wunderground v.1.15,2013-01-12 10:47:00,
2013-01-12 04:52:00,58.4,56.7,29.56,South,177,5.0,6.0,94,0.00,,,0.00,Wunderground v.1.15,2013-01-12 10:52:00,
2013-01-12 04:57:00,58.6,56.9,29.56,SW,231,5.0,10.0,94,0.00,,,0.00,Wunderground v.1.15,2013-01-12 10:57:00,
2013-01-12 05:02:00,58.6,56.9,29.56,SW,222,4.0,8.0,94,0.00,,,0.00,Wunderground v.1.15,2013-01-12 11:02:00,
2013-01-12 05:07:00,58.7,56.7,29.56,WSW,242,2.0,8.0,93,0.00,,,0.00,Wunderground v.1.15,2013-01-12 11:07:00,
2013-01-12 05:12:00,58.9,57.2,29.56,SW,228,3.0,8.0,94,0.00,,,0.00,Wunderground v.1.15,2013-01-12 11:12:00,
2013-01-12 05:17:00,58.9,56.9,29.56,SSW,205,3.0,8.0,93,0.00,,,0.00,Wunderground v.1.15,2013-01-12 11:17:00,
2013-01-12 05:22:00,58.9,56.9,29.56,SSW,205,3.0,5.0,93,0.00,,,0.00,Wunderground v.1.15,2013-01-12 11:22:00,
2013-01-12 05:27:00,58.9,56.9,29.57,SSE,153,1.0,6.0,93,0.00,,,0.00,Wunderground v.1.15,2013-01-12 11:27:00,
2013-01-12 05:32:00,58.9,56.9,29.57,SSW,208,2.0,3.0,93,0.00,,,0.00,Wunderground v.1.15,2013-01-12 11:32:00,
2013-01-12 05:37:00,59.0,57.3,29.57,SSE,160,2.0,6.0,94,0.00,,,0.00,Wunderground v.1.15,2013-01-12 11:37:00,
2013-01-12 05:42:00,59.0,57.3,29.57,SSE,152,1.0,5.0,94,0.00,,,0.00,Wunderground v.1.15,2013-01-12 11:42:00,
2013-01-12 05:47:00,58.9,57.2,29.57,SSW,210,2.0,5.0,94,0.00,,,0.00,Wunderground v.1.15,2013-01-12 11:47:00,
2013-01-12 05:52:00,58.9,57.2,29.58,SW,226,3.0,6.0,94,0.00,,,0.00,Wunderground v.1.15,2013-01-12 11:52:00,
2013-01-12 05:57:00,58.9,57.2,29.57,SW,219,2.0,6.0,94,0.00,,,0.00,Wunderground v.1.15,2013-01-12 11:57:00,
2013-01-12 06:02:00,59.0,57.3,29.58,SSE,156,1.0,4.0,94,0.00,,,0.00,Wunderground v.1.15,2013-01-12 12:02:00,
2013-01-12 06:07:00,59.0,57.3,29.57,SE,136,1.0,4.0,94,0.00,,,0.00,Wunderground v.1.15,2013-01-12 12:07:00,
2013-01-12 06:12:00,59.0,57.3,29.57,SE,136,0.0,2.0,94,0.00,,,0.00,Wunderground v.1.15,2013-01-12 12:12:00,
2013-01-12 06:17:00,59.0,57.3,29.57,SSE,165,1.0,3.0,94,0.00,,,0.00,Wunderground v.1.15,2013-01-12 12:17:00,
2013-01-12 06:22:00,59.0,57.3,29.58,SW,229,0.0,2.0,94,0.00,,,0.00,Wunderground v.1.15,2013-01-12 12:22:00,
2013-01-12 06:27:00,58.9,57.2,29.57,SW,218,1.0,2.0,94,0.00,,,0.00,Wunderground v.1.15,2013-01-12 12:27:00,
2013-01-12 06:32:00,58.9,57.2,29.58,SE,142,0.0,0.0,94,0.00,,,0.00,Wunderground v.1.15,2013-01-12 12:32:00,
2013-01-12 06:37:00,59.0,57.6,29.58,SW,214,0.0,1.0,95,0.00,,,0.00,Wunderground v.1.15,2013-01-12 12:37:00,
2013-01-12 06:42:00,59.0,57.3,29.58,SW,214,0.0,1.0,94,0.00,,,0.00,Wunderground v.1.15,2013-01-12 12:42:00,
2013-01-12 06:47:00,59.0,57.6,29.58,SE,143,0.0,2.0,95,0.00,,,0.00,Wunderground v.1.15,2013-01-12 12:47:00,
2013-01-12 06:52:00,58.9,57.5,29.58,SE,143,0.0,0.0,95,0.00,,,0.00,Wunderground v.1.15,2013-01-12 12:52:00,
2013-01-12 06:57:00,58.9,57.5,29.59,SE,128,2.0,3.0,95,0.00,,,0.00,Wunderground v.1.15,2013-01-12 12:57:00,
2013-01-12 07:02:00,59.0,57.6,29.59,SE,143,0.0,2.0,95,0.00,,,0.00,Wunderground v.1.15,2013-01-12 13:02:00,
2013-01-12 07:07:00,59.0,57.6,29.59,SSW,207,2.0,4.0,95,0.00,,,0.00,Wunderground v.1.15,2013-01-12 13:07:00,
2013-01-12 07:12:00,59.0,57.6,29.59,SSE,159,2.0,2.0,95,0.00,,,0.00,Wunderground v.1.15,2013-01-12 13:12:00,
2013-01-12 07:17:00,59.1,57.7,29.59,SE,142,2.0,3.0,95,0.00,,,0.00,Wunderground v.1.15,2013-01-12 13:17:00,
2013-01-12 07:22:00,59.1,57.7,29.59,SSE,155,0.0,2.0,95,0.00,,,0.00,Wunderground v.1.15,2013-01-12 13:22:00,
2013-01-12 07:27:00,59.1,57.7,29.59,SSE,165,0.0,3.0,95,0.00,,,0.00,Wunderground v.1.15,2013-01-12 13:27:00,
2013-01-12 07:32:00,59.2,57.8,29.58,SE,136,0.0,3.0,95,0.00,,,0.00,Wunderground v.1.15,2013-01-12 13:32:00,
2013-01-12 07:37:00,59.3,57.9,29.59,SSW,201,1.0,3.0,95,0.00,,,0.00,Wunderground v.1.15,2013-01-12 13:37:00,
2013-01-12 07:42:00,59.3,57.9,29.58,SSE,162,0.0,1.0,95,0.00,,,0.00,Wunderground v.1.15,2013-01-12 13:42:00,
2013-01-12 07:47:00,59.0,57.6,29.58,SSE,162,0.0,1.0,95,0.00,,,0.00,Wunderground v.1.15,2013-01-12 13:47:00,
2013-01-12 07:52:00,58.8,57.4,29.58,SSE,160,0.0,0.0,95,0.00,,,0.00,Wunderground v.1.15,2013-01-12 13:52:00,
2013-01-12 07:57:00,58.5,57.1,29.59,SE,141,0.0,0.0,95,0.00,,,0.00,Wunderground v.1.15,2013-01-12 13:57:00,
2013-01-12 08:02:00,58.4,57.0,29.59,SE,141,0.0,0.0,95,0.00,,,0.00,Wunderground v.1.15,2013-01-12 14:02:00,
2013-01-12 08:07:00,58.4,57.3,29.59,SE,141,0.0,1.0,96,0.00,,,0.00,Wunderground v.1.15,2013-01-12 14:07:00,
2013-01-12 08:12:00,58.2,56.8,29.58,SE,141,0.0,0.0,95,0.00,,,0.00,Wunderground v.1.15,2013-01-12 14:12:00,
2013-01-12 08:17:00,58.2,57.1,29.59,SE,141,0.0,0.0,96,0.00,,,0.00,Wunderground v.1.15,2013-01-12 14:17:00,
2013-01-12 08:22:00,58.4,57.3,29.59,SE,141,0.0,0.0,96,0.00,,,0.00,Wunderground v.1.15,2013-01-12 14:22:00,
2013-01-12 08:27:00,58.5,57.4,29.59,SE,141,0.0,0.0,96,0.00,,,0.00,Wunderground v.1.15,2013-01-12 14:27:00,
2013-01-12 08:33:00,58.4,57.3,29.59,SE,141,0.0,1.0,96,0.00,,,0.00,Wunderground v.1.15,2013-01-12 14:33:00,
2013-01-12 08:38:00,58.5,57.4,29.59,SE,141,0.0,1.0,96,0.00,,,0.00,Wunderground v.1.15,2013-01-12 14:38:00,
2013-01-12 08:43:00,58.2,56.8,29.59,SE,141,0.0,0.0,95,0.00,,,0.00,Wunderground v.1.15,2013-01-12 14:43:00,
2013-01-12 08:48:00,58.5,57.7,29.59,SSE,152,1.0,1.0,97,0.00,,,0.00,Wunderground v.1.15,2013-01-12 14:48:00,
2013-01-12 08:53:00,58.7,57.6,29.59,SE,125,0.0,1.0,96,0.00,,,0.00,Wunderground v.1.15,2013-01-12 14:53:00,
2013-01-12 08:58:00,58.6,57.5,29.59,ESE,108,0.0,1.0,96,0.00,,,0.00,Wunderground v.1.15,2013-01-12 14:58:00,
2013-01-12 09:03:00,58.5,57.4,29.59,East,96,0.0,1.0,96,0.00,,,0.00,Wunderground v.1.15,2013-01-12 15:03:00,
2013-01-12 09:08:00,58.3,56.9,29.59,East,93,1.0,1.0,95,0.00,,,0.00,Wunderground v.1.15,2013-01-12 15:08:00,
2013-01-12 09:13:00,58.1,56.7,29.58,East,95,0.0,1.0,95,0.00,,,0.00,Wunderground v.1.15,2013-01-12 15:13:00,
2013-01-12 09:18:00,58.0,56.9,29.58,ESE,104,0.0,2.0,96,0.00,,,0.00,Wunderground v.1.15,2013-01-12 15:18:00,
2013-01-12 09:23:00,58.0,56.9,29.58,ESE,105,0.0,1.0,96,0.00,,,0.00,Wunderground v.1.15,2013-01-12 15:23:00,
2013-01-12 09:28:00,58.2,57.1,29.59,ESE,105,0.0,1.0,96,0.00,,,0.00,Wunderground v.1.15,2013-01-12 15:28:00,
2013-01-12 09:33:00,58.2,57.1,29.59,ESE,105,0.0,0.0,96,0.00,,,0.00,Wunderground v.1.15,2013-01-12 15:33:00,
2013-01-12 09:38:00,58.3,57.2,29.59,ESE,105,0.0,0.0,96,0.00,,,0.00,Wunderground v.1.15,2013-01-12 15:38:00,
2013-01-12 09:43:00,58.4,57.3,29.59,ESE,105,0.0,0.0,96,0.00,,,0.00,Wunderground v.1.15,2013-01-12 15:43:00,
2013-01-12 09:48:00,58.4,57.3,29.59,ESE,105,0.0,0.0,96,0.00,,,0.00,Wunderground v.1.15,2013-01-12 15:48:00,
2013-01-12 09:53:00,58.4,57.3,29.59,ESE,106,0.0,0.0,96,0.00,,,0.00,Wunderground v.1.15,2013-01-12 15:53:00,
2013-01-12 09:58:00,58.5,57.4,29.59,ESE,106,0.0,1.0,96,0.00,,,0.00,Wunderground v.1.15,2013-01-12 15:58:00,
2013-01-12 10:03:00,58.4,57.3,29.59,ESE,104,0.0,2.0,96,0.00,,,0.00,Wunderground v.1.15,2013-01-12 16:03:00,
2013-01-12 10:08:00,58.4,57.3,29.58,East,98,1.0,2.0,96,0.00,,,0.00,Wunderground v.1.15,2013-01-12 16:08:00,
2013-01-12 10:13:00,58.2,57.1,29.58,ESE,102,0.0,2.0,96,0.00,,,0.00,Wunderground v.1.15,2013-01-12 16:13:00,
2013-01-12 10:18:00,58.3,57.5,29.58,ESE,103,0.0,2.0,97,0.00,,,0.00,Wunderground v.1.15,2013-01-12 16:18:00,
2013-01-12 10:23:00,58.3,57.5,29.58,ESE,104,0.0,0.0,97,0.00,,,0.00,Wunderground v.1.15,2013-01-12 16:23:00,
2013-01-12 10:28:00,58.4,57.6,29.58,East,98,0.0,1.0,97,0.00,,,0.00,Wunderground v.1.15,2013-01-12 16:28:00,
2013-01-12 10:33:00,58.4,57.6,29.57,East,96,0.0,1.0,97,0.00,,,0.00,Wunderground v.1.15,2013-01-12 16:33:00,
2013-01-12 10:38:00,58.4,57.6,29.57,East,98,0.0,1.0,97,0.00,,,0.00,Wunderground v.1.15,2013-01-12 16:38:00,
2013-01-12 10:43:00,58.4,57.6,29.57,East,98,0.0,0.0,97,0.00,,,0.00,Wunderground v.1.15,2013-01-12 16:43:00,
2013-01-12 10:48:00,58.5,57.7,29.57,East,98,0.0,0.0,97,0.00,,,0.00,Wunderground v.1.15,2013-01-12 16:48:00,
2013-01-12 10:53:00,58.7,58.1,29.57,East,97,0.0,0.0,98,0.00,,,0.00,Wunderground v.1.15,2013-01-12 16:53:00,
2013-01-12 10:58:00,58.8,58.2,29.56,East,98,0.0,0.0,98,0.00,,,0.00,Wunderground v.1.15,2013-01-12 16:58:00,
2013-01-12 11:03:00,59.0,58.4,29.56,East,98,0.0,1.0,98,0.00,,,0.00,Wunderground v.1.15,2013-01-12 17:03:00,
2013-01-12 11:08:00,59.1,58.5,29.56,East,98,0.0,1.0,98,0.00,,,0.00,Wunderground v.1.15,2013-01-12 17:08:00,
2013-01-12 11:13:00,59.2,58.6,29.56,East,98,0.0,0.0,98,0.00,,,0.01,Wunderground v.1.15,2013-01-12 17:13:00,
2013-01-12 11:18:00,59.0,58.2,29.56,ESE,106,0.0,1.0,97,0.00,,,0.01,Wunderground v.1.15,2013-01-12 17:18:00,
2013-01-12 11:23:00,59.0,58.2,29.55,ESE,105,0.0,1.0,97,0.00,,,0.01,Wunderground v.1.15,2013-01-12 17:23:00,
2013-01-12 11:28:00,59.1,58.5,29.55,ESE,102,0.0,1.0,98,0.00,,,0.01,Wunderground v.1.15,2013-01-12 17:28:00,
2013-01-12 11:33:00,59.1,58.5,29.54,East,99,0.0,1.0,98,0.00,,,0.01,Wunderground v.1.15,2013-01-12 17:33:00,
2013-01-12 11:38:00,59.3,58.7,29.54,East,99,0.0,1.0,98,0.00,,,0.01,Wunderground v.1.15,2013-01-12 17:38:00,
2013-01-12 11:43:00,59.6,59.0,29.54,East,98,0.0,0.0,98,0.00,,,0.01,Wunderground v.1.15,2013-01-12 17:43:00,
2013-01-12 11:49:00,59.9,59.3,29.54,East,98,0.0,0.0,98,0.00,,,0.01,Wunderground v.1.15,2013-01-12 17:49:00,
2013-01-12 11:54:00,59.9,59.0,29.53,East,97,0.0,0.0,97,0.00,,,0.01,Wunderground v.1.15,2013-01-12 17:54:00,
2013-01-12 11:59:00,59.9,59.0,29.52,East,97,0.0,0.0,97,0.00,,,0.01,Wunderground v.1.15,2013-01-12 17:59:00,
2013-01-12 12:04:00,59.7,58.8,29.52,ENE,63,1.0,2.0,97,0.00,,,0.01,Wunderground v.1.15,2013-01-12 18:04:00,
2013-01-12 12:09:00,59.5,58.6,29.52,ENE,61,1.0,2.0,97,0.00,,,0.01,Wunderground v.1.15,2013-01-12 18:09:00,
2013-01-12 12:14:00,59.5,58.6,29.52,ENE,60,0.0,1.0,97,0.00,,,0.01,Wunderground v.1.15,2013-01-12 18:14:00,
2013-01-12 12:19:00,59.7,58.8,29.51,East,91,0.0,1.0,97,0.00,,,0.01,Wunderground v.1.15,2013-01-12 18:19:00,
2013-01-12 12:24:00,59.5,58.6,29.51,East,94,0.0,1.0,97,0.00,,,0.01,Wunderground v.1.15,2013-01-12 18:24:00,
2013-01-12 12:29:00,59.5,58.6,29.51,ESE,106,0.0,2.0,97,0.00,,,0.01,Wunderground v.1.15,2013-01-12 18:29:00,
2013-01-12 12:34:00,59.4,58.5,29.50,ESE,102,0.0,3.0,97,0.00,,,0.01,Wunderground v.1.15,2013-01-12 18:34:00,
2013-01-12 12:39:00,59.4,58.5,29.49,East,91,0.0,3.0,97,0.00,,,0.01,Wunderground v.1.15,2013-01-12 18:39:00,
2013-01-12 12:44:00,59.6,59.0,29.50,SE,132,0.0,1.0,98,0.00,,,0.01,Wunderground v.1.15,2013-01-12 18:44:00,
2013-01-12 12:49:00,59.8,59.2,29.50,SE,133,0.0,1.0,98,0.00,,,0.01,Wunderground v.1.15,2013-01-12 18:49:00,
2013-01-12 12:54:00,59.9,59.3,29.49,NE,44,0.0,1.0,98,0.00,,,0.01,Wunderground v.1.15,2013-01-12 18:54:00,
2013-01-12 12:59:00,59.9,59.3,29.48,ENE,60,0.0,1.0,98,0.00,,,0.01,Wunderground v.1.15,2013-01-12 18:59:00,
2013-01-12 13:04:00,59.9,59.3,29.49,SE,130,0.0,3.0,98,0.00,,,0.01,Wunderground v.1.15,2013-01-12 19:04:00,
2013-01-12 13:09:00,60.1,59.5,29.48,ENE,65,1.0,3.0,98,0.00,,,0.01,Wunderground v.1.15,2013-01-12 19:09:00,
2013-01-12 13:14:00,59.9,59.0,29.47,ESE,104,0.0,1.0,97,0.00,,,0.01,Wunderground v.1.15,2013-01-12 19:14:00,
2013-01-12 13:19:00,59.9,59.0,29.47,ENE,77,0.0,1.0,97,0.00,,,0.01,Wunderground v.1.15,2013-01-12 19:19:00,
2013-01-12 13:24:00,59.9,59.0,29.47,East,79,0.0,1.0,97,0.00,,,0.01,Wunderground v.1.15,2013-01-12 19:24:00,
2013-01-12 13:30:00,59.9,59.0,29.46,ESE,104,1.0,1.0,97,0.00,,,0.01,Wunderground v.1.15,2013-01-12 19:30:00,
2013-01-12 13:35:00,59.8,58.9,29.45,NNE,30,1.0,2.0,97,0.21,,,0.03,Wunderground v.1.15,2013-01-12 19:35:00,
2013-01-12 13:40:00,59.7,58.8,29.45,NNE,26,0.0,1.0,97,0.46,,,0.06,Wunderground v.1.15,2013-01-12 19:40:00,
2013-01-12 13:45:00,59.7,58.8,29.45,NNW,329,1.0,1.0,97,0.22,,,0.08,Wunderground v.1.15,2013-01-12 19:45:00,
2013-01-12 13:50:00,59.7,59.1,29.44,NNW,347,2.0,3.0,98,0.17,,,0.09,Wunderground v.1.15,2013-01-12 19:50:00,
2013-01-12 13:55:00,59.4,58.5,29.44,NNW,338,2.0,3.0,97,0.49,,,0.12,Wunderground v.1.15,2013-01-12 19:55:00,
2013-01-12 14:00:00,59.3,58.7,29.44,North,355,2.0,2.0,98,0.69,,,0.21,Wunderground v.1.15,2013-01-12 20:00:00,
2013-01-12 14:05:00,59.5,58.9,29.43,NNE,20,4.0,5.0,98,3.24,,,0.33,Wunderground v.1.15,2013-01-12 20:05:00,
2013-01-12 14:10:00,59.9,59.3,29.43,NW,317,4.0,4.0,98,1.79,,,0.52,Wunderground v.1.15,2013-01-12 20:10:00,
2013-01-12 14:15:00,60.1,59.8,29.42,North,6,7.0,8.0,99,1.30,,,0.66,Wunderground v.1.15,2013-01-12 20:15:00,
2013-01-12 14:20:00,60.1,59.8,29.40,NNW,340,5.0,6.0,99,0.55,,,0.75,Wunderground v.1.15,2013-01-12 20:20:00,
2013-01-12 14:25:00,60.3,60.0,29.38,East,84,0.0,11.0,99,0.18,,,0.77,Wunderground v.1.15,2013-01-12 20:25:00,
2013-01-12 14:30:00,59.9,59.6,29.38,SW,217,0.0,3.0,99,0.08,,,0.78,Wunderground v.1.15,2013-01-12 20:30:00,
2013-01-12 14:35:00,60.0,59.7,29.35,NNE,20,5.0,10.0,99,0.60,,,0.83,Wunderground v.1.15,2013-01-12 20:35:00,
2013-01-12 14:40:00,60.6,60.3,29.34,West,266,17.0,18.0,99,4.30,,,1.09,Wunderground v.1.15,2013-01-12 20:40:00,
2013-01-12 14:45:00,61.2,60.9,29.43,WSW,248,11.0,36.0,99,0.34,,,1.21,Wunderground v.1.15,2013-01-12 20:45:00,
2013-01-12 14:50:00,60.9,60.6,29.44,West,266,3.0,15.0,99,0.09,,,1.21,Wunderground v.1.15,2013-01-12 20:50:00,
2013-01-12 14:55:00,60.8,60.5,29.44,SW,221,4.0,15.0,99,0.05,,,1.21,Wunderground v.1.15,2013-01-12 20:55:00,
2013-01-12 15:00:00,60.8,60.5,29.44,South,191,7.0,9.0,99,0.04,,,1.21,Wunderground v.1.15,2013-01-12 21:00:00,
2013-01-12 15:05:00,60.8,60.5,29.43,SW,233,4.0,11.0,99,0.00,,,1.22,Wunderground v.1.15,2013-01-12 21:05:00,
2013-01-12 15:10:00,60.7,60.4,29.44,SE,131,0.0,4.0,99,0.00,,,1.22,Wunderground v.1.15,2013-01-12 21:10:00,
2013-01-12 15:15:00,60.7,60.4,29.43,SW,217,5.0,8.0,99,0.00,,,1.22,Wunderground v.1.15,2013-01-12 21:15:00,
2013-01-12 15:20:00,60.7,60.4,29.44,SE,144,3.0,3.0,99,0.00,,,1.22,Wunderground v.1.15,2013-01-12 21:20:00,
2013-01-12 15:25:00,60.7,60.4,29.44,SW,215,4.0,5.0,99,0.00,,,1.22,Wunderground v.1.15,2013-01-12 21:25:00,
2013-01-12 15:30:00,60.8,60.5,29.44,SE,146,5.0,5.0,99,0.00,,,1.22,Wunderground v.1.15,2013-01-12 21:30:00,
2013-01-12 15:35:00,60.8,60.5,29.43,SE,128,1.0,5.0,99,0.00,,,1.22,Wunderground v.1.15,2013-01-12 21:35:00,
2013-01-12 15:40:00,60.7,60.4,29.43,SE,128,0.0,1.0,99,0.00,,,1.22,Wunderground v.1.15,2013-01-12 21:40:00,
2013-01-12 15:45:00,60.8,60.5,29.43,SE,141,2.0,5.0,99,0.00,,,1.22,Wunderground v.1.15,2013-01-12 21:45:00,
2013-01-12 15:50:00,60.9,60.9,29.43,ESE,105,0.0,1.0,100,0.00,,,1.22,Wunderground v.1.15,2013-01-12 21:50:00,
2013-01-12 15:55:00,61.1,61.1,29.43,SE,136,2.0,4.0,100,0.00,,,1.22,Wunderground v.1.15,2013-01-12 21:55:00,
2013-01-12 16:00:00,61.2,61.2,29.43,SE,136,4.0,5.0,100,0.00,,,1.22,Wunderground v.1.15,2013-01-12 22:00:00,
2013-01-12 16:05:00,61.4,61.4,29.43,SE,133,3.0,8.0,100,0.00,,,1.22,Wunderground v.1.15,2013-01-12 22:05:00,
2013-01-12 16:10:00,61.6,61.6,29.42,SE,133,2.0,4.0,100,0.00,,,1.22,Wunderground v.1.15,2013-01-12 22:10:00,
2013-01-12 16:15:00,61.6,61.6,29.42,ESE,105,5.0,7.0,100,0.00,,,1.22,Wunderground v.1.15,2013-01-12 22:15:00,
2013-01-12 16:20:00,61.7,61.7,29.42,ESE,121,4.0,6.0,100,0.00,,,1.22,Wunderground v.1.15,2013-01-12 22:20:00,
2013-01-12 16:25:00,61.7,61.7,29.42,SSE,167,6.0,12.0,100,0.00,,,1.22,Wunderground v.1.15,2013-01-12 22:25:00,
2013-01-12 16:30:00,61.8,61.8,29.42,SSE,160,3.0,5.0,100,0.00,,,1.22,Wunderground v.1.15,2013-01-12 22:30:00,
2013-01-12 16:35:00,61.8,61.8,29.42,SSE,155,4.0,6.0,100,0.00,,,1.22,Wunderground v.1.15,2013-01-12 22:35:00,
2013-01-12 16:40:00,61.8,61.8,29.42,SE,142,5.0,5.0,100,0.00,,,1.22,Wunderground v.1.15,2013-01-12 22:40:00,
2013-01-12 16:45:00,61.9,61.9,29.42,SE,134,6.0,9.0,100,0.00,,,1.22,Wunderground v.1.15,2013-01-12 22:45:00,
2013-01-12 16:50:00,61.9,61.9,29.42,SE,136,2.0,5.0,100,0.00,,,1.22,Wunderground v.1.15,2013-01-12 22:50:00,
2013-01-12 16:55:00,61.9,61.9,29.42,SSE,162,6.0,8.0,100,0.00,,,1.22,Wunderground v.1.15,2013-01-12 22:55:00,
2013-01-12 17:00:00,61.9,61.9,29.42,SE,142,7.0,7.0,100,0.00,,,1.22,Wunderground v.1.15,2013-01-12 23:00:00,
2013-01-12 17:05:00,61.9,61.9,29.41,ESE,121,2.0,9.0,100,0.00,,,1.22,Wunderground v.1.15,2013-01-12 23:05:00,
2013-01-12 17:10:00,62.0,62.0,29.41,SSE,153,4.0,6.0,100,0.00,,,1.22,Wunderground v.1.15,2013-01-12 23:10:00,
2013-01-12 17:15:00,62.0,62.0,29.41,SE,132,7.0,8.0,100,0.00,,,1.22,Wunderground v.1.15,2013-01-12 23:15:00,
2013-01-12 17:20:00,62.0,62.0,29.41,SE,136,3.0,5.0,100,0.00,,,1.22,Wunderground v.1.15,2013-01-12 23:20:00,
2013-01-12 17:25:00,62.0,62.0,29.41,ESE,108,3.0,8.0,100,0.00,,,1.22,Wunderground v.1.15,2013-01-12 23:25:00,
2013-01-12 17:30:00,62.1,62.1,29.41,SE,138,6.0,9.0,100,0.00,,,1.22,Wunderground v.1.15,2013-01-12 23:30:00,
2013-01-12 17:35:00,62.2,62.2,29.41,SSE,158,8.0,11.0,100,0.00,,,1.22,Wunderground v.1.15,2013-01-12 23:35:00,
2013-01-12 17:40:00,62.2,62.2,29.41,East,84,4.0,10.0,100,0.00,,,1.22,Wunderground v.1.15,2013-01-12 23:40:00,
2013-01-12 17:45:00,62.3,62.3,29.39,ESE,104,5.0,10.0,100,0.00,,,1.22,Wunderground v.1.15,2013-01-12 23:45:00,
2013-01-12 17:50:00,62.3,62.3,29.40,East,101,1.0,7.0,100,0.00,,,1.22,Wunderground v.1.15,2013-01-12 23:50:00,
2013-01-12 17:55:00,62.3,62.0,29.40,SSE,167,3.0,8.0,99,0.00,,,1.22,Wunderground v.1.15,2013-01-12 23:55:00,
2013-01-12 18:00:00,62.2,61.9,29.40,ESE,118,3.0,6.0,99,0.00,,,1.22,Wunderground v.1.15,2013-01-13 00:00:00,
2013-01-12 18:05:00,62.2,61.9,29.40,SE,142,4.0,9.0,99,0.00,,,1.22,Wunderground v.1.15,2013-01-13 00:05:00,
2013-01-12 18:10:00,62.3,62.0,29.40,SSE,160,7.0,9.0,99,0.00,,,1.22,Wunderground v.1.15,2013-01-13 00:10:00,
2013-01-12 18:15:00,62.4,62.1,29.40,ESE,115,5.0,11.0,99,0.00,,,1.22,Wunderground v.1.15,2013-01-13 00:15:00,
2013-01-12 18:20:00,62.4,62.1,29.40,SSE,157,9.0,10.0,99,0.00,,,1.22,Wunderground v.1.15,2013-01-13 00:20:00,
2013-01-12 18:25:00,62.5,62.2,29.39,SSE,156,7.0,12.0,99,0.00,,,1.22,Wunderground v.1.15,2013-01-13 00:25:00,
2013-01-12 18:30:00,62.7,62.4,29.40,SE,136,7.0,8.0,99,0.00,,,1.22,Wunderground v.1.15,2013-01-13 00:30:00,
2013-01-12 18:35:00,62.8,62.5,29.40,SE,136,6.0,13.0,99,0.00,,,1.22,Wunderground v.1.15,2013-01-13 00:35:00,
2013-01-12 18:40:00,62.9,62.6,29.40,SE,144,2.0,6.0,99,0.00,,,1.22,Wunderground v.1.15,2013-01-13 00:40:00,
2013-01-12 18:45:00,63.2,62.9,29.40,SSW,197,1.0,9.0,99,0.00,,,1.22,Wunderground v.1.15,2013-01-13 00:45:00,
2013-01-12 18:50:00,63.3,62.7,29.40,SSE,155,6.0,6.0,98,0.00,,,1.22,Wunderground v.1.15,2013-01-13 00:50:00,
2013-01-12 18:55:00,63.5,62.6,29.40,SE,127,3.0,10.0,97,0.00,,,1.22,Wunderground v.1.15,2013-01-13 00:55:00,
2013-01-12 19:00:00,63.8,62.6,29.40,SSE,150,9.0,9.0,96,0.00,,,1.22,Wunderground v.1.15,2013-01-13 01:00:00,
2013-01-12 19:05:00,63.9,62.4,29.40,SE,127,8.0,9.0,95,0.00,,,1.22,Wunderground v.1.15,2013-01-13 01:05:00,
2013-01-12 19:10:00,64.2,62.4,29.39,SE,124,4.0,7.0,94,0.00,,,1.22,Wunderground v.1.15,2013-01-13 01:10:00,
2013-01-12 19:15:00,64.4,62.3,29.39,SE,146,4.0,12.0,93,0.00,,,1.22,Wunderground v.1.15,2013-01-13 01:15:00,
2013-01-12 19:21:00,64.5,62.1,29.39,SE,132,7.0,9.0,92,0.00,,,1.22,Wunderground v.1.15,2013-01-13 01:21:00,
2013-01-12 19:26:00,64.6,61.9,29.39,SE,129,5.0,12.0,91,0.00,,,1.22,Wunderground v.1.15,2013-01-13 01:26:00,
2013-01-12 19:31:00,64.7,62.0,29.38,SSE,150,8.0,10.0,91,0.00,,,1.22,Wunderground v.1.15,2013-01-13 01:31:00,
2013-01-12 19:36:00,64.8,62.1,29.38,SSE,155,9.0,15.0,91,0.00,,,1.22,Wunderground v.1.15,2013-01-13 01:36:00,
2013-01-12 19:41:00,64.9,61.9,29.38,ESE,122,7.0,16.0,90,0.00,,,1.22,Wunderground v.1.15,2013-01-13 01:41:00,
2013-01-12 19:46:00,65.0,62.0,29.38,ESE,102,6.0,19.0,90,0.00,,,1.22,Wunderground v.1.15,2013-01-13 01:46:00,
2013-01-12 19:51:00,65.0,62.0,29.37,SSE,160,8.0,15.0,90,0.00,,,1.22,Wunderground v.1.15,2013-01-13 01:51:00,
2013-01-12 19:56:00,65.1,61.8,29.37,ESE,119,11.0,19.0,89,0.00,,,1.22,Wunderground v.1.15,2013-01-13 01:56:00,
2013-01-12 20:01:00,65.2,61.9,29.37,SE,135,12.0,14.0,89,0.00,,,1.22,Wunderground v.1.15,2013-01-13 02:01:00,
2013-01-12 20:06:00,65.3,61.7,29.37,SE,136,8.0,18.0,88,0.00,,,1.22,Wunderground v.1.15,2013-01-13 02:06:00,
2013-01-12 20:11:00,65.2,61.6,29.36,SE,139,11.0,15.0,88,0.00,,,1.22,Wunderground v.1.15,2013-01-13 02:11:00,
2013-01-12 20:16:00,65.1,61.5,29.36,SE,136,3.0,15.0,88,0.00,,,1.22,Wunderground v.1.15,2013-01-13 02:16:00,
2013-01-12 20:21:00,65.0,61.4,29.36,ESE,104,6.0,12.0,88,0.00,,,1.22,Wunderground v.1.15,2013-01-13 02:21:00,
2013-01-12 20:26:00,65.0,61.4,29.36,SSW,211,12.0,16.0,88,0.00,,,1.22,Wunderground v.1.15,2013-01-13 02:26:00,
2013-01-12 20:31:00,65.1,61.5,29.35,SE,141,7.0,13.0,88,0.00,,,1.22,Wunderground v.1.15,2013-01-13 02:31:00,
2013-01-12 20:36:00,65.2,61.2,29.35,SE,128,7.0,17.0,87,0.00,,,1.22,Wunderground v.1.15,2013-01-13 02:36:00,
2013-01-12 20:41:00,65.1,61.1,29.34,ESE,115,10.0,15.0,87,0.00,,,1.22,Wunderground v.1.15,2013-01-13 02:41:00,